sensor_id;sensor_type;location;lat;lon;timestamp;pressure;altitude;pressure_sealevel;temperature;humidity
6028;BME280;3042;43.194;27.646;2023-03-13T00:02:27;102151.31;;;8.89;100.00
6028;BME280;3042;43.194;27.646;2023-03-13T00:04:55;102159.38;;;8.82;100.00
6028;BME280;3042;43.194;27.646;2023-03-13T00:07:21;102165.97;;;8.66;100.00
6028;BME280;3042;43.194;27.646;2023-03-13T00:09:48;102169.66;;;8.58;100.00
6028;BME280;3042;43.194;27.646;2023-03-13T00:12:15;102168.56;;;8.66;100.00
6028;BME280;3042;43.194;27.646;2023-03-13T00:14:43;102171.19;;;8.44;100.00
6028;BME280;3042;43.194;27.646;2023-03-13T00:17:10;102165.63;;;8.50;100.00
6028;BME280;3042;43.194;27.646;2023-03-13T00:19:39;102123.38;;;8.48;100.00
6028;BME280;3042;43.194;27.646;2023-03-13T00:22:06;102167.88;;;8.57;100.00
6028;BME280;3042;43.194;27.646;2023-03-13T00:24:33;102166.03;;;8.44;100.00
6028;BME280;3042;43.194;27.646;2023-03-13T00:27:00;102171.59;;;8.39;100.00
6028;BME280;3042;43.194;27.646;2023-03-13T00:29:29;102173.41;;;8.40;100.00
6028;BME280;3042;43.194;27.646;2023-03-13T00:31:56;102074.28;;;7.89;100.00
6028;BME280;3042;43.194;27.646;2023-03-13T00:34:23;102174.91;;;8.38;100.00
6028;BME280;3042;43.194;27.646;2023-03-13T00:36:53;102174.16;;;8.39;100.00
6028;BME280;3042;43.194;27.646;2023-03-13T00:39:21;102181.72;;;8.25;100.00
6028;BME280;3042;43.194;27.646;2023-03-13T00:41:48;102175.53;;;8.23;100.00
6028;BME280;3042;43.194;27.646;2023-03-13T00:44:15;102156.50;;;8.21;100.00
6028;BME280;3042;43.194;27.646;2023-03-13T00:46:42;102147.09;;;8.10;100.00
6028;BME280;3042;43.194;27.646;2023-03-13T00:49:09;102166.97;;;8.01;100.00
6028;BME280;3042;43.194;27.646;2023-03-13T00:51:36;102180.25;;;8.17;100.00
6028;BME280;3042;43.194;27.646;2023-03-13T00:54:04;102178.22;;;8.13;100.00
6028;BME280;3042;43.194;27.646;2023-03-13T00:56:31;102174.22;;;8.29;100.00
6028;BME280;3042;43.194;27.646;2023-03-13T00:58:59;102180.50;;;8.32;100.00
6028;BME280;3042;43.194;27.646;2023-03-13T01:01:28;102145.53;;;8.24;100.00
6028;BME280;3042;43.194;27.646;2023-03-13T01:03:57;102185.09;;;8.58;100.00
6028;BME280;3042;43.194;27.646;2023-03-13T01:06:26;102173.25;;;8.60;100.00
6028;BME280;3042;43.194;27.646;2023-03-13T01:08:54;102170.50;;;8.47;100.00
6028;BME280;3042;43.194;27.646;2023-03-13T01:11:24;102146.47;;;8.24;100.00
6028;BME280;3042;43.194;27.646;2023-03-13T01:13:53;102179.38;;;8.29;100.00
6028;BME280;3042;43.194;27.646;2023-03-13T01:16:22;102188.72;;;8.16;100.00
6028;BME280;3042;43.194;27.646;2023-03-13T01:18:51;102187.19;;;8.18;100.00
6028;BME280;3042;43.194;27.646;2023-03-13T01:21:20;102191.66;;;8.21;100.00
6028;BME280;3042;43.194;27.646;2023-03-13T01:23:48;102204.13;;;8.04;100.00
6028;BME280;3042;43.194;27.646;2023-03-13T01:26:15;102153.72;;;7.74;100.00
6028;BME280;3042;43.194;27.646;2023-03-13T01:28:44;102205.00;;;8.05;100.00
6028;BME280;3042;43.194;27.646;2023-03-13T01:31:12;102172.88;;;7.78;100.00
6028;BME280;3042;43.194;27.646;2023-03-13T01:33:40;102126.59;;;7.46;100.00
6028;BME280;3042;43.194;27.646;2023-03-13T01:36:08;102201.47;;;7.93;100.00
6028;BME280;3042;43.194;27.646;2023-03-13T01:38:35;102211.84;;;7.82;100.00
6028;BME280;3042;43.194;27.646;2023-03-13T01:41:02;102178.41;;;7.72;100.00
6028;BME280;3042;43.194;27.646;2023-03-13T01:43:31;102205.59;;;7.91;100.00
6028;BME280;3042;43.194;27.646;2023-03-13T01:46:09;102211.47;;;8.00;100.00
6028;BME280;3042;43.194;27.646;2023-03-13T01:48:42;102212.31;;;7.89;100.00
6028;BME280;3042;43.194;27.646;2023-03-13T01:51:13;102222.13;;;7.82;100.00
6028;BME280;3042;43.194;27.646;2023-03-13T01:53:44;102234.88;;;7.81;100.00
6028;BME280;3042;43.194;27.646;2023-03-13T01:56:14;102232.53;;;7.84;100.00
6028;BME280;3042;43.194;27.646;2023-03-13T01:58:43;102243.28;;;7.68;100.00
6028;BME280;3042;43.194;27.646;2023-03-13T02:01:13;102245.88;;;7.68;100.00
6028;BME280;3042;43.194;27.646;2023-03-13T02:03:41;102248.81;;;7.63;100.00
6028;BME280;3042;43.194;27.646;2023-03-13T02:06:08;102256.44;;;7.61;100.00
6028;BME280;3042;43.194;27.646;2023-03-13T02:08:37;102252.84;;;7.59;100.00
6028;BME280;3042;43.194;27.646;2023-03-13T02:11:18;102237.88;;;7.65;100.00
6028;BME280;3042;43.194;27.646;2023-03-13T02:13:49;102258.06;;;7.71;100.00
6028;BME280;3042;43.194;27.646;2023-03-13T02:16:18;102254.56;;;7.80;100.00
6028;BME280;3042;43.194;27.646;2023-03-13T02:18:46;102253.00;;;7.82;100.00
6028;BME280;3042;43.194;27.646;2023-03-13T02:21:23;102259.13;;;7.95;100.00
6028;BME280;3042;43.194;27.646;2023-03-13T02:23:59;102261.16;;;7.99;100.00
6028;BME280;3042;43.194;27.646;2023-03-13T02:26:30;102269.72;;;7.88;100.00
6028;BME280;3042;43.194;27.646;2023-03-13T02:28:57;102275.16;;;7.80;100.00
6028;BME280;3042;43.194;27.646;2023-03-13T02:31:24;102174.41;;;7.11;100.00
6028;BME280;3042;43.194;27.646;2023-03-13T02:33:52;102276.94;;;7.81;100.00
6028;BME280;3042;43.194;27.646;2023-03-13T02:36:21;102219.09;;;7.34;100.00
6028;BME280;3042;43.194;27.646;2023-03-13T02:38:52;102287.78;;;7.67;100.00
6028;BME280;3042;43.194;27.646;2023-03-13T02:41:22;102295.78;;;7.60;100.00
6028;BME280;3042;43.194;27.646;2023-03-13T02:43:51;102296.28;;;7.66;100.00
6028;BME280;3042;43.194;27.646;2023-03-13T02:46:19;102301.84;;;7.50;100.00
6028;BME280;3042;43.194;27.646;2023-03-13T02:48:47;102297.09;;;7.55;100.00
6028;BME280;3042;43.194;27.646;2023-03-13T02:51:19;102299.66;;;7.55;100.00
6028;BME280;3042;43.194;27.646;2023-03-13T02:53:48;102306.84;;;7.49;100.00
6028;BME280;3042;43.194;27.646;2023-03-13T02:56:17;102311.50;;;7.43;100.00
6028;BME280;3042;43.194;27.646;2023-03-13T02:58:46;102323.59;;;7.23;100.00
6028;BME280;3042;43.194;27.646;2023-03-13T03:01:14;102318.47;;;7.33;100.00
6028;BME280;3042;43.194;27.646;2023-03-13T03:03:41;102326.31;;;7.25;100.00
6028;BME280;3042;43.194;27.646;2023-03-13T03:06:08;102329.78;;;7.25;100.00
6028;BME280;3042;43.194;27.646;2023-03-13T03:08:35;102309.72;;;7.11;100.00
6028;BME280;3042;43.194;27.646;2023-03-13T03:11:06;102346.63;;;7.32;100.00
6028;BME280;3042;43.194;27.646;2023-03-13T03:13:34;102230.34;;;6.52;100.00
6028;BME280;3042;43.194;27.646;2023-03-13T03:16:05;102334.13;;;7.47;100.00
6028;BME280;3042;43.194;27.646;2023-03-13T03:18:33;102343.66;;;7.37;100.00
6028;BME280;3042;43.194;27.646;2023-03-13T03:21:01;102349.84;;;7.19;100.00
6028;BME280;3042;43.194;27.646;2023-03-13T03:23:31;102349.31;;;7.23;100.00
6028;BME280;3042;43.194;27.646;2023-03-13T03:25:58;102239.31;;;6.37;100.00
6028;BME280;3042;43.194;27.646;2023-03-13T03:28:25;102361.63;;;7.07;100.00
6028;BME280;3042;43.194;27.646;2023-03-13T03:30:52;102356.00;;;7.01;100.00
6028;BME280;3042;43.194;27.646;2023-03-13T03:33:19;102348.81;;;7.17;100.00
6028;BME280;3042;43.194;27.646;2023-03-13T03:35:48;102259.91;;;6.88;100.00
6028;BME280;3042;43.194;27.646;2023-03-13T03:38:15;102352.41;;;7.19;100.00
6028;BME280;3042;43.194;27.646;2023-03-13T03:40:42;102354.22;;;7.10;100.00
6028;BME280;3042;43.194;27.646;2023-03-13T03:43:09;102300.47;;;6.72;100.00
6028;BME280;3042;43.194;27.646;2023-03-13T03:45:36;102366.91;;;7.08;100.00
6028;BME280;3042;43.194;27.646;2023-03-13T03:48:03;102361.91;;;7.10;100.00
6028;BME280;3042;43.194;27.646;2023-03-13T03:50:30;102365.63;;;7.03;100.00
6028;BME280;3042;43.194;27.646;2023-03-13T03:52:59;102362.94;;;7.12;100.00
6028;BME280;3042;43.194;27.646;2023-03-13T03:55:26;102370.25;;;6.97;100.00
6028;BME280;3042;43.194;27.646;2023-03-13T03:57:53;102371.66;;;6.93;100.00
6028;BME280;3042;43.194;27.646;2023-03-13T04:00:20;102374.09;;;7.02;100.00
6028;BME280;3042;43.194;27.646;2023-03-13T04:02:47;102374.22;;;7.04;100.00
6028;BME280;3042;43.194;27.646;2023-03-13T04:05:14;102381.53;;;6.89;100.00
6028;BME280;3042;43.194;27.646;2023-03-13T04:07:41;102388.22;;;6.87;100.00
6028;BME280;3042;43.194;27.646;2023-03-13T04:10:11;102390.94;;;6.98;100.00
6028;BME280;3042;43.194;27.646;2023-03-13T04:12:38;102381.66;;;6.80;100.00
6028;BME280;3042;43.194;27.646;2023-03-13T04:15:06;102399.00;;;6.93;100.00
6028;BME280;3042;43.194;27.646;2023-03-13T04:17:33;102413.88;;;6.76;100.00
6028;BME280;3042;43.194;27.646;2023-03-13T04:20:01;102408.13;;;6.79;100.00
6028;BME280;3042;43.194;27.646;2023-03-13T04:22:29;102381.72;;;6.61;100.00
6028;BME280;3042;43.194;27.646;2023-03-13T04:24:56;102422.59;;;6.68;100.00
6028;BME280;3042;43.194;27.646;2023-03-13T04:27:24;102415.44;;;6.85;100.00
6028;BME280;3042;43.194;27.646;2023-03-13T04:29:51;102424.91;;;6.75;100.00
6028;BME280;3042;43.194;27.646;2023-03-13T04:32:18;102393.84;;;6.43;100.00
6028;BME280;3042;43.194;27.646;2023-03-13T04:34:45;102433.47;;;6.55;100.00
6028;BME280;3042;43.194;27.646;2023-03-13T04:37:12;102433.25;;;6.73;100.00
6028;BME280;3042;43.194;27.646;2023-03-13T04:39:40;102432.78;;;6.77;100.00
6028;BME280;3042;43.194;27.646;2023-03-13T04:42:11;102424.66;;;6.72;100.00
6028;BME280;3042;43.194;27.646;2023-03-13T04:44:40;102428.38;;;6.66;100.00
6028;BME280;3042;43.194;27.646;2023-03-13T04:47:07;102401.06;;;6.47;100.00
6028;BME280;3042;43.194;27.646;2023-03-13T04:49:34;102445.31;;;6.64;100.00
6028;BME280;3042;43.194;27.646;2023-03-13T04:52:01;102445.44;;;6.65;100.00
6028;BME280;3042;43.194;27.646;2023-03-13T04:54:28;102449.47;;;6.72;100.00
6028;BME280;3042;43.194;27.646;2023-03-13T04:56:55;102451.88;;;6.70;100.00
6028;BME280;3042;43.194;27.646;2023-03-13T04:59:22;102461.53;;;6.73;100.00
6028;BME280;3042;43.194;27.646;2023-03-13T05:01:50;102461.16;;;6.79;100.00
6028;BME280;3042;43.194;27.646;2023-03-13T05:04:17;102457.69;;;6.78;100.00
6028;BME280;3042;43.194;27.646;2023-03-13T05:06:44;102460.66;;;6.93;100.00
6028;BME280;3042;43.194;27.646;2023-03-13T05:09:11;102456.47;;;7.14;100.00
6028;BME280;3042;43.194;27.646;2023-03-13T05:11:38;102459.00;;;7.33;100.00
6028;BME280;3042;43.194;27.646;2023-03-13T05:14:06;102456.31;;;7.52;100.00
6028;BME280;3042;43.194;27.646;2023-03-13T05:16:36;102453.97;;;7.45;100.00
6028;BME280;3042;43.194;27.646;2023-03-13T05:19:05;102447.53;;;7.80;100.00
6028;BME280;3042;43.194;27.646;2023-03-13T05:21:32;102449.47;;;7.83;100.00
6028;BME280;3042;43.194;27.646;2023-03-13T05:23:59;102435.13;;;8.07;100.00
6028;BME280;3042;43.194;27.646;2023-03-13T05:26:26;102434.34;;;8.18;100.00
6028;BME280;3042;43.194;27.646;2023-03-13T05:28:53;102430.03;;;8.39;100.00
6028;BME280;3042;43.194;27.646;2023-03-13T05:31:20;102437.94;;;8.63;100.00
6028;BME280;3042;43.194;27.646;2023-03-13T05:33:47;102310.66;;;8.39;100.00
6028;BME280;3042;43.194;27.646;2023-03-13T05:36:15;102421.84;;;9.43;100.00
6028;BME280;3042;43.194;27.646;2023-03-13T05:38:42;102423.69;;;9.68;100.00
6028;BME280;3042;43.194;27.646;2023-03-13T05:41:09;102420.34;;;10.04;100.00
6028;BME280;3042;43.194;27.646;2023-03-13T05:43:37;102421.38;;;10.42;100.00
6028;BME280;3042;43.194;27.646;2023-03-13T05:46:05;102422.16;;;10.64;99.19
6028;BME280;3042;43.194;27.646;2023-03-13T05:48:32;102358.13;;;10.85;100.00
6028;BME280;3042;43.194;27.646;2023-03-13T05:50:59;102407.06;;;11.71;100.00
6028;BME280;3042;43.194;27.646;2023-03-13T05:53:27;101812.28;;;8.81;99.81
6028;BME280;3042;43.194;27.646;2023-03-13T05:55:54;102401.69;;;12.48;99.73
6028;BME280;3042;43.194;27.646;2023-03-13T05:58:21;102359.56;;;12.93;95.85
6028;BME280;3042;43.194;27.646;2023-03-13T06:00:48;102382.94;;;13.36;95.19
6028;BME280;3042;43.194;27.646;2023-03-13T06:03:16;102380.81;;;13.59;93.67
6028;BME280;3042;43.194;27.646;2023-03-13T06:05:43;102324.66;;;13.46;93.55
6028;BME280;3042;43.194;27.646;2023-03-13T06:08:10;102378.81;;;13.99;92.06
6028;BME280;3042;43.194;27.646;2023-03-13T06:10:38;102375.16;;;14.27;90.92
6028;BME280;3042;43.194;27.646;2023-03-13T06:13:05;102390.25;;;14.18;88.47
6028;BME280;3042;43.194;27.646;2023-03-13T06:15:32;102393.22;;;14.24;87.96
6028;BME280;3042;43.194;27.646;2023-03-13T06:18:01;102395.34;;;14.31;87.85
6028;BME280;3042;43.194;27.646;2023-03-13T06:20:28;102395.44;;;14.18;87.95
6028;BME280;3042;43.194;27.646;2023-03-13T06:22:55;102342.53;;;14.01;88.38
6028;BME280;3042;43.194;27.646;2023-03-13T06:25:23;102393.72;;;14.33;88.29
6028;BME280;3042;43.194;27.646;2023-03-13T06:27:53;102313.88;;;14.15;89.18
6028;BME280;3042;43.194;27.646;2023-03-13T06:30:27;102381.59;;;14.65;90.07
6028;BME280;3042;43.194;27.646;2023-03-13T06:32:57;102303.06;;;14.55;89.38
6028;BME280;3042;43.194;27.646;2023-03-13T06:35:24;102174.31;;;14.47;88.88
6028;BME280;3042;43.194;27.646;2023-03-13T06:37:51;102286.81;;;15.62;88.43
6028;BME280;3042;43.194;27.646;2023-03-13T06:40:19;102349.16;;;16.86;87.14
6028;BME280;3042;43.194;27.646;2023-03-13T06:42:46;102339.00;;;17.33;83.75
6028;BME280;3042;43.194;27.646;2023-03-13T06:45:15;102331.72;;;17.68;81.67
6028;BME280;3042;43.194;27.646;2023-03-13T06:47:42;102263.03;;;17.07;79.25
6028;BME280;3042;43.194;27.646;2023-03-13T06:50:12;102332.31;;;16.99;79.42
6028;BME280;3042;43.194;27.646;2023-03-13T06:52:39;102354.91;;;17.39;79.55
6028;BME280;3042;43.194;27.646;2023-03-13T06:55:07;102357.81;;;17.45;78.64
6028;BME280;3042;43.194;27.646;2023-03-13T06:57:37;102385.78;;;16.88;79.56
6028;BME280;3042;43.194;27.646;2023-03-13T07:00:05;102407.47;;;16.32;80.17
6028;BME280;3042;43.194;27.646;2023-03-13T07:02:38;102412.41;;;16.08;81.77
6028;BME280;3042;43.194;27.646;2023-03-13T07:05:25;102424.22;;;15.49;84.04
6028;BME280;3042;43.194;27.646;2023-03-13T07:07:53;102450.31;;;14.53;87.86
6028;BME280;3042;43.194;27.646;2023-03-13T07:10:20;102458.31;;;14.10;90.23
6028;BME280;3042;43.194;27.646;2023-03-13T07:12:47;102370.44;;;14.20;92.59
6028;BME280;3042;43.194;27.646;2023-03-13T07:15:15;102420.81;;;14.84;92.40
6028;BME280;3042;43.194;27.646;2023-03-13T07:21:02;102130.22;;;14.50;89.92
6028;BME280;3042;43.194;27.646;2023-03-13T07:23:38;101997.25;;;12.62;87.38
6028;BME280;3042;43.194;27.646;2023-03-13T07:26:07;102258.63;;;15.02;87.77
6028;BME280;3042;43.194;27.646;2023-03-13T07:28:34;102140.47;;;14.64;86.37
6028;BME280;3042;43.194;27.646;2023-03-13T07:31:06;102378.78;;;16.32;85.56
6028;BME280;3042;43.194;27.646;2023-03-13T07:33:34;102362.63;;;16.39;84.82
6028;BME280;3042;43.194;27.646;2023-03-13T07:36:03;102314.94;;;16.23;83.58
6028;BME280;3042;43.194;27.646;2023-03-13T07:38:30;102152.78;;;15.02;82.83
6028;BME280;3042;43.194;27.646;2023-03-13T07:40:57;102386.03;;;15.83;84.91
6028;BME280;3042;43.194;27.646;2023-03-13T07:43:26;102403.22;;;15.46;85.26
6028;BME280;3042;43.194;27.646;2023-03-13T07:45:57;102178.41;;;13.78;83.72
6028;BME280;3042;43.194;27.646;2023-03-13T07:48:27;102400.94;;;15.35;83.50
6028;BME280;3042;43.194;27.646;2023-03-13T07:50:55;102401.88;;;15.36;82.50
6028;BME280;3042;43.194;27.646;2023-03-13T07:53:24;102389.75;;;15.71;81.01
6028;BME280;3042;43.194;27.646;2023-03-13T07:55:53;102379.53;;;15.75;80.48
6028;BME280;3042;43.194;27.646;2023-03-13T07:58:21;102388.53;;;15.64;77.76
6028;BME280;3042;43.194;27.646;2023-03-13T08:00:49;102151.41;;;14.40;76.17
6028;BME280;3042;43.194;27.646;2023-03-13T08:03:16;102280.53;;;15.59;75.73
6028;BME280;3042;43.194;27.646;2023-03-13T08:05:43;102366.28;;;16.24;72.82
6028;BME280;3042;43.194;27.646;2023-03-13T08:08:11;102364.50;;;16.23;69.71
6028;BME280;3042;43.194;27.646;2023-03-13T08:10:42;102377.63;;;15.89;64.98
6028;BME280;3042;43.194;27.646;2023-03-13T08:13:09;102359.50;;;16.10;64.37
6028;BME280;3042;43.194;27.646;2023-03-13T08:15:41;102215.28;;;15.56;63.33
6028;BME280;3042;43.194;27.646;2023-03-13T08:18:08;102221.00;;;15.13;63.35
6028;BME280;3042;43.194;27.646;2023-03-13T08:20:38;102173.81;;;14.89;64.20
6028;BME280;3042;43.194;27.646;2023-03-13T08:23:05;102275.50;;;15.98;63.11
6028;BME280;3042;43.194;27.646;2023-03-13T08:25:32;102359.84;;;15.80;62.09
6028;BME280;3042;43.194;27.646;2023-03-13T08:28:03;102348.19;;;15.92;60.98
6028;BME280;3042;43.194;27.646;2023-03-13T08:30:30;102363.63;;;15.53;60.67
6028;BME280;3042;43.194;27.646;2023-03-13T08:32:57;102320.75;;;15.12;60.20
6028;BME280;3042;43.194;27.646;2023-03-13T08:35:24;102271.94;;;14.73;58.56
6028;BME280;3042;43.194;27.646;2023-03-13T08:37:51;102355.88;;;15.54;58.48
6028;BME280;3042;43.194;27.646;2023-03-13T08:40:18;102166.97;;;14.91;58.10
6028;BME280;3042;43.194;27.646;2023-03-13T08:42:45;102124.88;;;14.99;53.79
6028;BME280;3042;43.194;27.646;2023-03-13T08:45:13;102255.84;;;15.69;51.37
6028;BME280;3042;43.194;27.646;2023-03-13T08:47:40;102177.72;;;15.15;51.64
6028;BME280;3042;43.194;27.646;2023-03-13T08:50:08;102191.06;;;15.58;51.70
6028;BME280;3042;43.194;27.646;2023-03-13T08:52:40;102170.00;;;15.54;50.96
6028;BME280;3042;43.194;27.646;2023-03-13T08:58:42;102310.69;;;16.25;50.96
6028;BME280;3042;43.194;27.646;2023-03-13T09:01:13;102261.53;;;16.54;50.43
6028;BME280;3042;43.194;27.646;2023-03-13T09:03:43;102300.41;;;16.48;50.61
6028;BME280;3042;43.194;27.646;2023-03-13T09:06:12;102308.09;;;16.25;50.58
6028;BME280;3042;43.194;27.646;2023-03-13T09:08:40;102300.81;;;16.38;50.39
6028;BME280;3042;43.194;27.646;2023-03-13T09:11:09;102290.38;;;16.57;50.81
6028;BME280;3042;43.194;27.646;2023-03-13T09:13:37;102174.91;;;15.83;49.38
6028;BME280;3042;43.194;27.646;2023-03-13T09:16:06;102284.81;;;16.69;49.63
6028;BME280;3042;43.194;27.646;2023-03-13T09:18:35;102288.47;;;16.53;49.71
6028;BME280;3042;43.194;27.646;2023-03-13T09:21:05;102270.34;;;16.95;50.19
6028;BME280;3042;43.194;27.646;2023-03-13T09:23:33;102259.56;;;17.08;49.25
6028;BME280;3042;43.194;27.646;2023-03-13T09:26:00;102271.44;;;16.81;49.87
6028;BME280;3042;43.194;27.646;2023-03-13T09:28:27;102270.25;;;16.94;49.47
6028;BME280;3042;43.194;27.646;2023-03-13T09:30:54;102261.97;;;17.04;48.99
6028;BME280;3042;43.194;27.646;2023-03-13T09:33:24;102136.69;;;16.23;48.31
6028;BME280;3042;43.194;27.646;2023-03-13T09:35:53;102277.19;;;16.74;49.00
6028;BME280;3042;43.194;27.646;2023-03-13T09:38:20;102285.84;;;16.73;47.59
6028;BME280;3042;43.194;27.646;2023-03-13T09:40:49;102267.97;;;17.01;48.28
6028;BME280;3042;43.194;27.646;2023-03-13T09:43:36;102268.25;;;17.07;47.70
6028;BME280;3042;43.194;27.646;2023-03-13T09:46:11;102259.19;;;17.41;49.50
6028;BME280;3042;43.194;27.646;2023-03-13T09:48:42;102246.69;;;17.13;49.61
6028;BME280;3042;43.194;27.646;2023-03-13T09:51:17;102207.31;;;16.87;50.09
6028;BME280;3042;43.194;27.646;2023-03-13T09:53:51;102283.13;;;16.89;48.03
6028;BME280;3042;43.194;27.646;2023-03-13T09:56:25;102289.88;;;16.84;48.45
6028;BME280;3042;43.194;27.646;2023-03-13T09:58:57;102286.81;;;16.94;48.96
6028;BME280;3042;43.194;27.646;2023-03-13T10:01:29;102280.31;;;16.84;47.78
6028;BME280;3042;43.194;27.646;2023-03-13T10:04:09;102281.59;;;16.75;47.13
6028;BME280;3042;43.194;27.646;2023-03-13T10:06:44;102288.13;;;16.65;49.18
6028;BME280;3042;43.194;27.646;2023-03-13T10:09:18;102293.81;;;16.56;48.86
6028;BME280;3042;43.194;27.646;2023-03-13T10:11:51;102293.28;;;16.44;47.96
6028;BME280;3042;43.194;27.646;2023-03-13T10:14:29;102260.41;;;17.07;49.25
6028;BME280;3042;43.194;27.646;2023-03-13T10:17:02;102073.53;;;15.90;47.94
6028;BME280;3042;43.194;27.646;2023-03-13T10:19:34;102229.50;;;16.97;49.71
6028;BME280;3042;43.194;27.646;2023-03-13T10:22:11;102264.56;;;17.02;48.41
6028;BME280;3042;43.194;27.646;2023-03-13T10:24:43;102167.84;;;16.80;48.39
6028;BME280;3042;43.194;27.646;2023-03-13T10:27:13;102260.03;;;16.98;48.83
6028;BME280;3042;43.194;27.646;2023-03-13T10:29:40;102257.69;;;16.85;48.88
6028;BME280;3042;43.194;27.646;2023-03-13T10:32:10;102243.22;;;17.13;48.94
6028;BME280;3042;43.194;27.646;2023-03-13T10:34:48;102231.97;;;17.36;50.55
6028;BME280;3042;43.194;27.646;2023-03-13T10:37:20;102223.94;;;17.52;49.36
6028;BME280;3042;43.194;27.646;2023-03-13T10:39:48;102241.47;;;16.92;49.77
6028;BME280;3042;43.194;27.646;2023-03-13T10:42:20;102235.75;;;17.22;50.30
6028;BME280;3042;43.194;27.646;2023-03-13T10:44:55;102172.97;;;17.20;50.83
6028;BME280;3042;43.194;27.646;2023-03-13T10:47:23;102097.88;;;15.90;51.43
6028;BME280;3042;43.194;27.646;2023-03-13T10:49:51;102169.13;;;16.90;51.43
6028;BME280;3042;43.194;27.646;2023-03-13T10:52:34;102145.81;;;16.94;52.04
6028;BME280;3042;43.194;27.646;2023-03-13T10:55:17;101941.84;;;15.01;52.47
6028;BME280;3042;43.194;27.646;2023-03-13T10:57:58;102165.34;;;17.04;53.31
6028;BME280;3042;43.194;27.646;2023-03-13T11:00:36;102222.59;;;17.41;53.91
6028;BME280;3042;43.194;27.646;2023-03-13T11:03:14;102223.56;;;17.22;52.08
6028;BME280;3042;43.194;27.646;2023-03-13T11:05:43;102219.16;;;17.42;53.58
6028;BME280;3042;43.194;27.646;2023-03-13T11:08:22;102200.06;;;17.22;54.15
6028;BME280;3042;43.194;27.646;2023-03-13T11:10:57;101880.47;;;14.86;54.08
6028;BME280;3042;43.194;27.646;2023-03-13T11:13:33;102228.59;;;16.97;54.98
6028;BME280;3042;43.194;27.646;2023-03-13T11:16:09;102236.81;;;16.65;54.79
6028;BME280;3042;43.194;27.646;2023-03-13T11:18:42;102237.69;;;16.66;56.50
6028;BME280;3042;43.194;27.646;2023-03-13T11:21:18;102225.81;;;16.73;57.73
6028;BME280;3042;43.194;27.646;2023-03-13T11:23:54;102219.75;;;16.74;57.63
6028;BME280;3042;43.194;27.646;2023-03-13T11:26:32;102129.72;;;16.43;57.48
6028;BME280;3042;43.194;27.646;2023-03-13T11:29:08;102158.69;;;16.49;56.51
6028;BME280;3042;43.194;27.646;2023-03-13T11:31:39;102153.94;;;16.00;56.67
6028;BME280;3042;43.194;27.646;2023-03-13T11:34:14;102205.78;;;16.72;56.65
6028;BME280;3042;43.194;27.646;2023-03-13T11:36:51;101980.31;;;15.65;57.09
6028;BME280;3042;43.194;27.646;2023-03-13T11:39:47;102140.63;;;16.13;56.53
6028;BME280;3042;43.194;27.646;2023-03-13T11:45:32;102036.16;;;16.10;56.69
6028;BME280;3042;43.194;27.646;2023-03-13T11:48:16;102163.75;;;16.65;55.67
6028;BME280;3042;43.194;27.646;2023-03-13T11:50:48;102141.91;;;16.63;56.79
6028;BME280;3042;43.194;27.646;2023-03-13T11:53:39;102020.41;;;16.07;56.09
6028;BME280;3042;43.194;27.646;2023-03-13T11:56:14;102134.19;;;16.86;57.13
6028;BME280;3042;43.194;27.646;2023-03-13T11:58:56;102146.31;;;17.06;57.26
6028;BME280;3042;43.194;27.646;2023-03-13T12:01:29;101993.09;;;15.99;56.63
6028;BME280;3042;43.194;27.646;2023-03-13T12:04:02;102064.81;;;16.09;56.72
6028;BME280;3042;43.194;27.646;2023-03-13T12:06:35;102114.72;;;15.59;56.07
6028;BME280;3042;43.194;27.646;2023-03-13T12:09:08;101807.59;;;14.10;56.81
6028;BME280;3042;43.194;27.646;2023-03-13T12:11:43;102171.47;;;16.43;58.19
6028;BME280;3042;43.194;27.646;2023-03-13T12:14:14;102176.72;;;17.04;57.70
6028;BME280;3042;43.194;27.646;2023-03-13T12:16:47;102166.78;;;16.55;56.77
6028;BME280;3042;43.194;27.646;2023-03-13T12:19:20;102134.56;;;16.55;55.51
6028;BME280;3042;43.194;27.646;2023-03-13T12:21:50;102175.09;;;16.87;56.32
6028;BME280;3042;43.194;27.646;2023-03-13T12:24:24;102154.19;;;17.29;57.04
6028;BME280;3042;43.194;27.646;2023-03-13T12:26:58;102132.94;;;16.99;56.32
6028;BME280;3042;43.194;27.646;2023-03-13T12:29:36;102095.88;;;16.65;55.89
6028;BME280;3042;43.194;27.646;2023-03-13T12:32:09;102166.19;;;17.24;56.39
6028;BME280;3042;43.194;27.646;2023-03-13T12:34:45;102152.28;;;17.47;56.15
6028;BME280;3042;43.194;27.646;2023-03-13T12:37:25;102139.09;;;17.67;55.95
6028;BME280;3042;43.194;27.646;2023-03-13T12:39:58;102139.78;;;17.63;55.54
6028;BME280;3042;43.194;27.646;2023-03-13T12:42:41;102117.94;;;16.93;55.84
6028;BME280;3042;43.194;27.646;2023-03-13T12:45:15;102153.09;;;17.46;56.17
6028;BME280;3042;43.194;27.646;2023-03-13T12:48:12;102148.25;;;17.56;57.63
6028;BME280;3042;43.194;27.646;2023-03-13T12:51:00;102170.16;;;16.93;57.55
6028;BME280;3042;43.194;27.646;2023-03-13T12:53:49;102147.78;;;17.43;56.80
6028;BME280;3042;43.194;27.646;2023-03-13T12:56:34;102165.47;;;17.28;56.96
6028;BME280;3042;43.194;27.646;2023-03-13T12:59:12;102048.06;;;16.66;58.08
6028;BME280;3042;43.194;27.646;2023-03-13T13:01:48;101779.41;;;15.58;58.10
6028;BME280;3042;43.194;27.646;2023-03-13T13:04:21;101815.06;;;16.01;58.44
6028;BME280;3042;43.194;27.646;2023-03-13T13:06:56;102150.97;;;17.36;57.79
6028;BME280;3042;43.194;27.646;2023-03-13T13:09:28;102110.44;;;17.23;59.35
6028;BME280;3042;43.194;27.646;2023-03-13T13:11:57;102114.47;;;16.94;57.83
6028;BME280;3042;43.194;27.646;2023-03-13T13:20:38;102054.50;;;16.75;58.71
6028;BME280;3042;43.194;27.646;2023-03-13T13:23:30;102133.16;;;17.71;58.42
6028;BME280;3042;43.194;27.646;2023-03-13T13:32:40;102140.03;;;17.46;57.96
6028;BME280;3042;43.194;27.646;2023-03-13T13:35:29;102104.47;;;17.72;57.95
6028;BME280;3042;43.194;27.646;2023-03-13T13:38:27;102160.47;;;17.12;57.88
6028;BME280;3042;43.194;27.646;2023-03-13T13:41:25;102096.34;;;17.20;58.44